createdAt,value
2023-10-09T00:01:11.163Z,54.78
2023-10-09T00:02:15.950Z,52.93
2023-10-09T00:03:20.027Z,53.43
2023-10-09T00:04:25.030Z,53.95
2023-10-09T00:05:46.932Z,55.16
2023-10-09T00:06:50.066Z,55.21
2023-10-09T00:07:57.384Z,55.92
2023-10-09T00:09:13.084Z,53.78
2023-10-09T00:10:19.098Z,53.29
2023-10-09T00:11:22.398Z,52.48
2023-10-09T00:12:27.074Z,53.33
2023-10-09T00:13:33.965Z,53.98
2023-10-09T00:14:41.229Z,53.90
2023-10-09T00:15:44.734Z,54.62
2023-10-09T00:16:57.504Z,55.14
2023-10-09T00:18:00.654Z,55.07
2023-10-09T00:19:15.121Z,54.92
2023-10-09T00:20:40.821Z,55.10
2023-10-09T00:21:45.973Z,56.30
2023-10-09T00:22:48.842Z,55.95
2023-10-09T00:23:57.130Z,57.06
2023-10-09T00:25:13.142Z,57.49
2023-10-09T00:26:17.942Z,58.02
2023-10-09T00:27:22.126Z,57.52
2023-10-09T00:28:25.228Z,57.22
2023-10-09T00:29:35.657Z,58.02
2023-10-09T00:30:43.080Z,58.96
2023-10-09T00:31:51.439Z,58.79
2023-10-09T00:33:00.876Z,59.22
2023-10-09T00:34:08.146Z,60.01
2023-10-09T00:35:29.213Z,60.56
2023-10-09T00:36:34.102Z,60.78
2023-10-09T00:37:37.147Z,60.35
2023-10-09T00:38:50.706Z,59.45
2023-10-09T00:39:57.662Z,59.55
2023-10-09T00:41:09.622Z,59.13
2023-10-09T00:42:18.029Z,60.59
2023-10-09T00:43:20.928Z,60.70
2023-10-09T00:44:23.823Z,59.81
2023-10-09T00:45:29.521Z,59.21
2023-10-09T00:46:36.227Z,59.32
2023-10-09T00:47:42.471Z,59.42
2023-10-09T00:48:49.182Z,59.31
2023-10-09T00:50:22.335Z,58.68
2023-10-09T00:51:25.925Z,58.79
2023-10-09T00:52:44.566Z,59.11
2023-10-09T00:53:53.285Z,58.83
2023-10-09T00:55:02.261Z,59.94
2023-10-09T00:56:29.061Z,59.93
2023-10-09T00:57:35.327Z,59.22
2023-10-09T00:58:38.571Z,60.08
2023-10-09T00:59:44.523Z,60.42
2023-10-09T01:00:48.075Z,60.54
2023-10-09T01:01:58.497Z,60.42
2023-10-09T01:03:31.835Z,60.18
2023-10-09T01:04:41.980Z,59.15
2023-10-09T01:06:13.388Z,58.59
2023-10-09T01:07:18.417Z,58.70
2023-10-09T01:08:48.245Z,59.03
2023-10-09T01:09:53.462Z,61.01
2023-10-09T01:11:10.414Z,60.85
2023-10-09T01:12:22.856Z,61.12
2023-10-09T01:13:45.637Z,60.60
2023-10-09T01:14:56.673Z,60.01
2023-10-09T01:15:59.812Z,60.53
2023-10-09T01:17:03.465Z,60.18
2023-10-09T01:18:09.016Z,60.05
2023-10-09T01:19:21.237Z,60.25
2023-10-09T01:20:31.311Z,60.51
2023-10-09T01:21:34.372Z,60.79
2023-10-09T01:22:37.028Z,61.08
2023-10-09T01:24:04.931Z,61.41
2023-10-09T01:25:09.294Z,61.66
2023-10-09T01:26:13.013Z,61.09
2023-10-09T01:27:16.983Z,60.92
2023-10-09T01:28:20.544Z,61.71
2023-10-09T01:29:29.035Z,62.12
2023-10-09T01:30:35.115Z,61.09
2023-10-09T01:31:45.987Z,62.35
2023-10-09T01:32:49.297Z,61.87
2023-10-09T01:33:54.942Z,62.93
2023-10-09T01:34:58.957Z,62.12
2023-10-09T01:36:02.446Z,61.62
2023-10-09T01:37:27.660Z,61.61
2023-10-09T01:38:41.708Z,61.21
2023-10-09T01:39:46.538Z,61.00
2023-10-09T01:40:53.170Z,59.40
2023-10-09T01:42:00.087Z,57.71
2023-10-09T01:43:05.299Z,58.68
2023-10-09T01:44:13.785Z,58.33
2023-10-09T01:45:16.989Z,58.44
2023-10-09T01:46:21.124Z,57.42
2023-10-09T01:47:24.139Z,56.76
2023-10-09T01:48:27.326Z,55.97
2023-10-09T01:49:32.904Z,56.48
2023-10-09T01:50:43.307Z,56.77
2023-10-09T01:51:46.688Z,57.02
2023-10-09T01:52:50.859Z,56.88
2023-10-09T01:53:58.225Z,58.34
2023-10-09T01:55:08.262Z,59.13
2023-10-09T01:56:19.018Z,59.52
2023-10-09T01:57:25.415Z,58.55
2023-10-09T01:58:33.777Z,56.70
2023-10-09T01:59:39.918Z,56.88
2023-10-09T02:00:51.072Z,56.91
2023-10-09T02:01:56.214Z,57.77
2023-10-09T02:03:04.716Z,57.79
2023-10-09T02:04:15.261Z,56.83
2023-10-09T02:05:18.457Z,56.59
2023-10-09T02:06:28.210Z,56.53
2023-10-09T02:07:41.892Z,56.78
2023-10-09T02:08:51.061Z,56.31
2023-10-09T02:09:55.496Z,56.31
2023-10-09T02:10:58.606Z,56.75
2023-10-09T02:12:03.026Z,56.69
2023-10-09T02:13:10.507Z,56.64
2023-10-09T02:14:22.269Z,56.88
2023-10-09T02:15:44.034Z,57.52
2023-10-09T02:17:03.964Z,57.55
2023-10-09T02:18:25.355Z,57.06
2023-10-09T02:19:35.272Z,56.96
2023-10-09T02:20:39.342Z,57.15
2023-10-09T02:21:43.037Z,57.10
2023-10-09T02:22:46.200Z,56.70
2023-10-09T02:23:51.505Z,57.07
2023-10-09T02:25:01.122Z,57.10
2023-10-09T02:26:06.341Z,57.00
2023-10-09T02:27:11.938Z,56.74
2023-10-09T02:28:20.609Z,56.72
2023-10-09T02:29:25.705Z,56.35
2023-10-09T02:30:30.399Z,56.38
2023-10-09T02:31:45.602Z,56.57
2023-10-09T02:32:53.933Z,56.89
2023-10-09T02:33:57.047Z,57.25
2023-10-09T02:35:10.075Z,57.49
2023-10-09T02:36:14.646Z,58.50
2023-10-09T02:37:24.712Z,60.06
2023-10-09T02:38:27.592Z,60.38
2023-10-09T02:39:37.910Z,62.90
2023-10-09T02:41:01.214Z,60.73
2023-10-09T02:42:16.239Z,61.31
2023-10-09T02:43:20.228Z,58.90
2023-10-09T02:44:33.062Z,58.86
2023-10-09T02:45:39.651Z,58.76
2023-10-09T02:46:42.941Z,59.49
2023-10-09T02:47:49.613Z,59.10
2023-10-09T02:48:52.451Z,59.90
2023-10-09T02:50:02.001Z,59.08
2023-10-09T02:51:05.028Z,59.79
2023-10-09T02:52:09.155Z,59.51
2023-10-09T02:53:19.824Z,59.17
2023-10-09T02:54:22.600Z,59.22
2023-10-09T02:55:27.437Z,59.76
2023-10-09T02:56:44.109Z,59.04
2023-10-09T02:57:47.160Z,58.17
2023-10-09T02:58:50.112Z,58.79
2023-10-09T02:59:53.045Z,58.67
2023-10-09T03:00:55.931Z,58.32
2023-10-09T03:02:01.086Z,58.31
2023-10-09T03:03:09.046Z,58.51
2023-10-09T03:04:12.602Z,58.23
2023-10-09T03:05:16.208Z,58.31
2023-10-09T03:06:26.504Z,59.11
2023-10-09T03:07:30.333Z,59.21
2023-10-09T03:08:33.327Z,58.54
2023-10-09T03:09:36.505Z,58.85
2023-10-09T03:10:40.103Z,59.07
2023-10-09T03:11:55.145Z,59.17
2023-10-09T03:13:01.294Z,59.44
2023-10-09T03:14:05.952Z,59.32
2023-10-09T03:15:12.845Z,58.88
2023-10-09T03:16:18.438Z,58.86
2023-10-09T03:17:24.334Z,59.27
2023-10-09T03:18:27.158Z,59.72
2023-10-09T03:19:31.205Z,59.26
2023-10-09T03:20:33.901Z,59.35
2023-10-09T03:21:37.423Z,59.39
2023-10-09T03:22:40.510Z,59.21
2023-10-09T03:23:45.121Z,59.24
2023-10-09T03:24:51.269Z,59.49
2023-10-09T03:26:01.415Z,59.42
2023-10-09T03:27:10.771Z,59.40
2023-10-09T03:28:13.951Z,59.52
2023-10-09T03:29:21.055Z,59.48
2023-10-09T03:30:24.624Z,59.59
2023-10-09T03:31:34.393Z,59.17
2023-10-09T03:32:37.317Z,58.97
2023-10-09T03:33:41.364Z,59.56
2023-10-09T03:34:45.076Z,59.63
2023-10-09T03:35:47.861Z,60.05
2023-10-09T03:37:00.785Z,59.81
2023-10-09T03:38:13.383Z,59.88
2023-10-09T03:39:42.232Z,59.67
2023-10-09T03:40:45.505Z,59.34
2023-10-09T03:41:48.512Z,58.94
2023-10-09T03:42:51.461Z,58.97
2023-10-09T03:43:55.428Z,59.22
2023-10-09T03:44:59.138Z,58.92
2023-10-09T03:46:04.812Z,59.21
2023-10-09T03:47:11.054Z,58.36
2023-10-09T03:48:22.702Z,58.46
2023-10-09T03:49:27.185Z,58.32
2023-10-09T03:50:39.542Z,58.84
2023-10-09T03:51:43.960Z,58.81
2023-10-09T03:52:47.065Z,58.59
2023-10-09T03:53:50.578Z,58.61
2023-10-09T03:54:53.805Z,58.45
2023-10-09T03:55:57.220Z,57.98
2023-10-09T03:57:00.443Z,57.38
2023-10-09T03:58:04.095Z,57.36
2023-10-09T03:59:06.806Z,57.21
2023-10-09T04:00:29.210Z,57.02
2023-10-09T04:01:39.423Z,56.74
2023-10-09T04:02:43.224Z,56.79
2023-10-09T04:03:46.285Z,56.58
2023-10-09T04:04:53.093Z,56.59
2023-10-09T04:05:56.594Z,56.08
2023-10-09T04:07:00.073Z,56.24
2023-10-09T04:08:03.491Z,56.20
2023-10-09T04:09:20.604Z,55.92
2023-10-09T04:10:42.216Z,55.74
2023-10-09T04:12:10.414Z,56.03
2023-10-09T04:13:18.915Z,55.87
2023-10-09T04:14:34.463Z,56.11
2023-10-09T04:15:37.366Z,55.50
2023-10-09T04:16:53.065Z,55.88
2023-10-09T04:17:58.333Z,55.97
2023-10-09T04:19:07.431Z,55.76
2023-10-09T04:20:16.829Z,55.79
2023-10-09T04:21:20.939Z,56.08
2023-10-09T04:22:28.676Z,55.71
2023-10-09T04:23:54.226Z,56.16
2023-10-09T04:24:58.739Z,56.30
2023-10-09T04:26:11.800Z,55.87
2023-10-09T04:27:18.410Z,55.54
2023-10-09T04:28:23.586Z,55.15
2023-10-09T04:29:29.174Z,55.31
2023-10-09T04:30:41.940Z,55.51
2023-10-09T04:31:53.233Z,55.22
2023-10-09T04:33:01.387Z,55.17
2023-10-09T04:34:25.452Z,54.94
2023-10-09T04:35:31.604Z,55.02
2023-10-09T04:36:47.938Z,54.50
2023-10-09T04:38:01.261Z,54.20
2023-10-09T04:39:06.977Z,54.18
2023-10-09T04:40:36.254Z,54.45
2023-10-09T04:41:45.181Z,54.18
2023-10-09T04:42:59.685Z,53.88
2023-10-09T04:44:21.626Z,54.14
2023-10-09T04:45:44.773Z,54.24
2023-10-09T04:47:08.769Z,55.21
2023-10-09T04:48:12.729Z,54.85
2023-10-09T04:49:30.792Z,54.52
2023-10-09T04:50:37.935Z,54.59
2023-10-09T04:51:57.431Z,54.60
2023-10-09T04:53:18.997Z,54.87
2023-10-09T04:54:40.836Z,54.35
2023-10-09T04:55:55.739Z,54.54
2023-10-09T04:56:59.498Z,54.48
2023-10-09T04:58:03.094Z,54.67
2023-10-09T04:59:06.843Z,54.80
2023-10-09T05:00:26.255Z,54.68
2023-10-09T05:01:38.030Z,54.71
2023-10-09T05:02:40.704Z,54.75
2023-10-09T05:03:44.067Z,54.75
2023-10-09T05:04:52.971Z,55.30
2023-10-09T05:06:21.771Z,55.10
2023-10-09T05:07:24.749Z,55.22
2023-10-09T05:08:28.485Z,54.74
2023-10-09T05:09:51.298Z,54.60
2023-10-09T05:10:58.680Z,54.73
2023-10-09T05:12:11.676Z,54.79
2023-10-09T05:13:15.114Z,54.75
2023-10-09T05:14:18.700Z,55.06
2023-10-09T05:15:28.332Z,54.65
2023-10-09T05:16:34.622Z,54.98
2023-10-09T05:17:39.763Z,54.31
2023-10-09T05:18:46.185Z,54.16
2023-10-09T05:20:18.527Z,53.54
2023-10-09T05:21:44.911Z,53.94
2023-10-09T05:22:58.635Z,54.03
2023-10-09T05:24:16.398Z,54.25
2023-10-09T05:25:40.343Z,53.93
2023-10-09T05:26:48.943Z,54.08
2023-10-09T05:27:52.531Z,53.82
2023-10-09T05:28:59.618Z,53.62
2023-10-09T05:30:14.405Z,52.58
2023-10-09T05:31:37.555Z,52.23
2023-10-09T05:32:49.767Z,52.51
2023-10-09T05:33:54.621Z,52.51
2023-10-09T05:35:00.350Z,52.24
2023-10-09T05:36:27.576Z,52.50
2023-10-09T05:37:36.272Z,52.94
2023-10-09T05:38:47.656Z,52.06
2023-10-09T05:40:02.978Z,52.89
2023-10-09T05:41:25.969Z,53.25
2023-10-09T05:42:44.499Z,52.48
2023-10-09T05:44:06.517Z,52.69
2023-10-09T05:45:32.986Z,52.34
2023-10-09T05:46:37.162Z,52.42
2023-10-09T05:47:49.128Z,52.60
2023-10-09T05:48:55.995Z,51.83
2023-10-09T05:50:19.099Z,52.16
2023-10-09T05:51:42.309Z,52.39
2023-10-09T05:52:54.324Z,52.18
2023-10-09T05:54:13.058Z,52.43
2023-10-09T05:55:18.836Z,52.37
2023-10-09T05:56:33.698Z,52.43
2023-10-09T05:57:54.967Z,51.96
2023-10-09T05:59:17.015Z,52.45
2023-10-09T06:00:38.909Z,52.48
2023-10-09T06:01:57.412Z,53.16
2023-10-09T06:03:19.494Z,52.95
2023-10-09T06:04:35.180Z,52.75
2023-10-09T06:06:03.091Z,53.15
2023-10-09T06:07:13.889Z,53.03
2023-10-09T06:08:26.082Z,52.85
2023-10-09T06:10:01.511Z,53.31
2023-10-09T06:11:07.864Z,52.97
2023-10-09T06:12:31.260Z,52.77
2023-10-09T06:13:46.882Z,52.88
2023-10-09T06:14:59.476Z,52.57
2023-10-09T06:16:21.304Z,52.86
2023-10-09T06:17:44.976Z,52.55
2023-10-09T06:19:07.577Z,52.83
2023-10-09T06:20:31.568Z,53.37
2023-10-09T06:21:41.271Z,52.50
2023-10-09T06:23:04.350Z,52.74
2023-10-09T06:24:16.843Z,52.81
2023-10-09T06:25:20.184Z,52.49
2023-10-09T06:26:27.001Z,52.37
2023-10-09T06:27:32.797Z,52.31
2023-10-09T06:28:36.009Z,52.38
2023-10-09T06:29:52.320Z,52.30
2023-10-09T06:30:55.464Z,51.87
2023-10-09T06:32:00.533Z,51.29
2023-10-09T06:33:03.972Z,51.27
2023-10-09T06:34:17.209Z,50.90
2023-10-09T06:35:23.622Z,50.47
2023-10-09T06:36:32.670Z,51.12
2023-10-09T06:37:35.376Z,50.85
2023-10-09T06:38:58.687Z,51.03
2023-10-09T06:40:30.982Z,50.90
2023-10-09T06:41:40.303Z,50.46
2023-10-09T06:42:42.941Z,50.76
2023-10-09T06:43:49.120Z,50.86
2023-10-09T06:44:55.058Z,51.18
2023-10-09T06:45:59.980Z,50.84
2023-10-09T06:47:09.260Z,50.82
2023-10-09T06:48:32.524Z,50.41
2023-10-09T06:49:37.741Z,50.47
2023-10-09T06:51:03.113Z,50.12
2023-10-09T06:52:16.837Z,49.98
2023-10-09T06:53:27.834Z,49.98
2023-10-09T06:54:38.980Z,49.45
2023-10-09T06:55:51.998Z,48.95
2023-10-09T06:56:54.906Z,49.01
2023-10-09T06:58:02.754Z,49.40
2023-10-09T06:59:26.086Z,49.17
2023-10-09T07:00:48.390Z,49.64
2023-10-09T07:02:10.634Z,49.95
2023-10-09T07:03:13.686Z,49.39
2023-10-09T07:04:20.660Z,49.54
2023-10-09T07:05:33.137Z,49.58
2023-10-09T07:06:35.815Z,49.01
2023-10-09T07:07:51.894Z,49.42
2023-10-09T07:09:07.601Z,48.41
2023-10-09T07:10:29.358Z,48.88
2023-10-09T07:11:43.259Z,48.98
2023-10-09T07:12:46.555Z,48.14
2023-10-09T07:13:54.544Z,46.93
2023-10-09T07:14:57.333Z,47.71
2023-10-09T07:16:18.665Z,46.84
2023-10-09T07:17:28.065Z,46.83
2023-10-09T07:18:50.969Z,46.69
2023-10-09T07:19:54.720Z,47.09
2023-10-09T07:21:00.690Z,46.59
2023-10-09T07:22:17.492Z,46.36
2023-10-09T07:23:22.837Z,46.86
2023-10-09T07:24:39.681Z,46.80
2023-10-09T07:25:56.546Z,47.14
2023-10-09T07:27:07.468Z,47.47
2023-10-09T07:28:30.322Z,46.69
2023-10-09T07:29:48.977Z,46.43
2023-10-09T07:30:59.161Z,47.03
2023-10-09T07:32:14.104Z,47.13
2023-10-09T07:33:17.459Z,46.87
2023-10-09T07:34:32.623Z,46.98
2023-10-09T07:35:45.119Z,47.18
2023-10-09T07:36:49.744Z,47.57
2023-10-09T07:37:52.774Z,47.09
2023-10-09T07:38:56.564Z,46.79
2023-10-09T07:39:59.808Z,46.97
2023-10-09T07:41:03.806Z,47.07
2023-10-09T07:42:28.321Z,46.21
2023-10-09T07:44:02.870Z,45.76
2023-10-09T07:45:21.056Z,45.81
2023-10-09T07:46:53.582Z,45.18
2023-10-09T07:48:03.948Z,45.26
2023-10-09T07:49:22.421Z,44.93
2023-10-09T07:50:25.105Z,45.10
2023-10-09T07:51:34.133Z,45.12
2023-10-09T07:52:44.736Z,45.13
2023-10-09T07:53:51.232Z,44.94
2023-10-09T07:55:16.920Z,44.35
2023-10-09T07:56:22.383Z,43.73
2023-10-09T07:57:30.833Z,43.92
2023-10-09T07:58:47.471Z,44.13
2023-10-09T08:00:02.497Z,44.05
2023-10-09T08:01:28.620Z,44.09
2023-10-09T08:02:34.268Z,43.30
2023-10-09T08:03:37.577Z,43.62
2023-10-09T08:04:51.143Z,43.24
2023-10-09T08:06:08.183Z,43.11
2023-10-09T08:08:01.327Z,43.40
2023-10-09T08:09:08.422Z,43.39
2023-10-09T08:10:15.107Z,43.36
2023-10-09T08:11:36.672Z,43.76
2023-10-09T08:12:51.193Z,43.77
2023-10-09T08:14:04.077Z,43.34
2023-10-09T08:15:20.750Z,42.69
2023-10-09T08:16:37.659Z,42.61
2023-10-09T08:17:40.475Z,42.30
2023-10-09T08:18:46.421Z,42.75
2023-10-09T08:19:59.519Z,42.03
2023-10-09T08:21:03.702Z,42.11
2023-10-09T08:22:38.906Z,42.79
2023-10-09T08:23:50.752Z,41.93
2023-10-09T08:24:57.431Z,41.27
2023-10-09T08:26:30.110Z,41.74
2023-10-09T08:27:33.241Z,41.37
2023-10-09T08:28:44.020Z,41.95
2023-10-09T08:29:50.452Z,41.03
2023-10-09T08:30:56.418Z,41.40
2023-10-09T08:34:21.922Z,42.03
2023-10-09T08:36:06.070Z,41.16
2023-10-09T08:37:14.607Z,40.96
2023-10-09T08:38:25.388Z,40.94
2023-10-09T08:39:28.742Z,41.18
2023-10-09T08:40:38.719Z,40.63
2023-10-09T08:41:42.219Z,41.18
2023-10-09T08:42:51.163Z,41.50
2023-10-09T08:43:55.291Z,41.35
2023-10-09T08:45:01.690Z,41.54
2023-10-09T08:46:07.165Z,41.31
2023-10-09T08:47:12.438Z,40.71
2023-10-09T08:48:19.134Z,40.55
2023-10-09T08:49:25.133Z,40.84
2023-10-09T08:50:29.971Z,40.64
2023-10-09T08:51:36.625Z,40.76
2023-10-09T08:52:39.310Z,41.03
2023-10-09T08:53:44.553Z,41.08
2023-10-09T08:54:47.337Z,41.60
2023-10-09T08:55:50.311Z,40.51
2023-10-09T08:56:57.575Z,40.61
2023-10-09T08:58:01.318Z,40.50
2023-10-09T08:59:07.456Z,40.23
2023-10-09T09:00:22.950Z,40.46
2023-10-09T09:01:27.040Z,39.67
2023-10-09T09:02:30.070Z,40.50
2023-10-09T09:03:40.187Z,39.95
2023-10-09T09:04:43.948Z,39.54
2023-10-09T09:05:53.483Z,39.59
2023-10-09T09:06:56.297Z,39.31
2023-10-09T09:08:01.053Z,39.06
2023-10-09T09:09:15.915Z,38.83
2023-10-09T09:10:36.487Z,37.81
2023-10-09T09:11:50.119Z,37.05
2023-10-09T09:13:02.072Z,35.69
2023-10-09T09:14:07.428Z,34.87
2023-10-09T09:15:21.384Z,34.20
2023-10-09T09:16:32.192Z,33.52
2023-10-09T09:17:36.848Z,32.98
2023-10-09T09:19:09.112Z,32.62
2023-10-09T09:20:38.291Z,32.19
2023-10-09T09:21:43.493Z,31.77
2023-10-09T09:23:01.561Z,32.13
2023-10-09T09:24:27.180Z,31.97
2023-10-09T09:25:46.357Z,31.94
2023-10-09T09:27:00.472Z,31.69
2023-10-09T09:28:11.319Z,31.53
2023-10-09T09:29:19.159Z,31.48
2023-10-09T09:30:35.367Z,31.41
2023-10-09T09:31:43.285Z,31.10
2023-10-09T09:33:06.342Z,30.73
2023-10-09T09:34:18.443Z,30.60
2023-10-09T09:35:21.904Z,31.19
2023-10-09T09:36:25.035Z,30.20
2023-10-09T09:37:52.707Z,29.97
2023-10-09T09:39:02.742Z,29.74
2023-10-09T09:40:35.188Z,29.25
2023-10-09T09:41:41.551Z,29.00
2023-10-09T09:42:49.659Z,28.56
2023-10-09T09:43:57.599Z,28.51
2023-10-09T09:45:02.933Z,28.98
2023-10-09T09:46:09.231Z,28.92
2023-10-09T09:47:15.481Z,28.41
2023-10-09T09:48:18.594Z,28.21
2023-10-09T09:49:23.088Z,28.74
2023-10-09T09:50:27.788Z,27.87
2023-10-09T09:51:37.088Z,28.70
2023-10-09T09:52:40.667Z,28.70
2023-10-09T09:53:49.769Z,28.89
2023-10-09T09:54:52.968Z,28.33
2023-10-09T09:55:59.551Z,27.76
2023-10-09T09:57:09.880Z,28.22
2023-10-09T09:58:21.968Z,29.07
2023-10-09T09:59:28.880Z,28.37
2023-10-09T10:00:44.382Z,27.84
2023-10-09T10:01:58.542Z,27.15
2023-10-09T10:03:08.204Z,27.22
2023-10-09T10:04:21.964Z,25.83
2023-10-09T10:05:31.373Z,25.85
2023-10-09T10:06:35.717Z,25.35
2023-10-09T10:07:46.109Z,24.70
2023-10-09T10:08:52.806Z,23.68
2023-10-09T10:09:56.157Z,24.69
2023-10-09T10:11:06.403Z,25.69
2023-10-09T10:12:12.701Z,25.87
2023-10-09T10:13:16.517Z,25.41
2023-10-09T10:14:43.010Z,25.32
2023-10-09T10:16:03.873Z,26.95
2023-10-09T10:17:22.714Z,27.90
2023-10-09T10:18:26.265Z,27.05
2023-10-09T10:20:36.029Z,28.63
2023-10-09T10:21:43.181Z,29.20
2023-10-09T10:22:49.394Z,28.58
2023-10-09T10:23:52.220Z,28.15
2023-10-09T10:24:55.673Z,28.07
2023-10-09T10:26:27.673Z,28.84
2023-10-09T10:27:30.921Z,28.29
2023-10-09T10:28:40.275Z,28.20
2023-10-09T10:29:44.312Z,28.03
2023-10-09T10:30:48.276Z,27.38
2023-10-09T10:31:59.060Z,26.53
2023-10-09T10:33:17.760Z,26.49
2023-10-09T10:34:25.322Z,25.10
2023-10-09T10:35:41.188Z,24.29
2023-10-09T10:36:45.674Z,25.00
2023-10-09T10:37:52.687Z,24.85
2023-10-09T10:39:10.911Z,25.11
2023-10-09T10:40:36.344Z,25.82
2023-10-09T10:41:55.398Z,26.11
2023-10-09T10:43:33.702Z,25.61
2023-10-09T10:44:43.476Z,25.38
2023-10-09T10:45:46.695Z,25.04
2023-10-09T10:46:55.824Z,24.88
2023-10-09T10:48:00.067Z,25.07
2023-10-09T10:49:16.726Z,24.43
2023-10-09T10:50:33.100Z,24.02
2023-10-09T10:51:39.398Z,24.95
2023-10-09T10:52:46.441Z,24.57
2023-10-09T10:53:56.066Z,24.04
2023-10-09T10:55:30.987Z,23.66
2023-10-09T10:56:39.519Z,24.18
2023-10-09T10:58:05.603Z,23.87
2023-10-09T10:59:08.685Z,24.17
2023-10-09T11:00:36.183Z,24.34
2023-10-09T11:01:55.028Z,24.72
2023-10-09T11:03:15.110Z,24.18
2023-10-09T11:04:39.069Z,24.79
2023-10-09T11:05:52.104Z,24.73
2023-10-09T11:07:08.244Z,24.74
2023-10-09T11:08:12.278Z,25.29
2023-10-09T11:09:24.931Z,26.25
2023-10-09T11:10:30.331Z,25.54
2023-10-09T11:11:42.276Z,25.70
2023-10-09T11:12:55.640Z,25.77
2023-10-09T11:14:25.024Z,25.00
2023-10-09T11:15:47.951Z,24.73
2023-10-09T11:16:59.675Z,23.58
2023-10-09T11:18:09.062Z,22.92
2023-10-09T11:19:28.778Z,22.96
2023-10-09T11:20:34.203Z,23.58
2023-10-09T11:21:42.168Z,24.10
2023-10-09T11:23:05.288Z,24.74
2023-10-09T11:24:29.582Z,27.16
2023-10-09T11:25:35.161Z,25.82
2023-10-09T11:26:41.886Z,24.42
2023-10-09T11:27:52.244Z,23.86
2023-10-09T11:29:14.450Z,23.67
2023-10-09T11:30:28.165Z,23.18
2023-10-09T11:31:31.192Z,23.88
2023-10-09T11:32:39.174Z,23.64
2023-10-09T11:33:50.288Z,23.87
2023-10-09T11:35:29.897Z,23.92
2023-10-09T11:36:35.957Z,23.89
2023-10-09T11:37:45.151Z,23.48
2023-10-09T11:38:50.606Z,22.97
2023-10-09T11:39:57.883Z,22.95
2023-10-09T11:41:25.779Z,22.92
2023-10-09T11:42:39.813Z,22.14
2023-10-09T11:43:53.142Z,21.73
2023-10-09T11:44:56.792Z,22.03
2023-10-09T11:46:35.189Z,22.75
2023-10-09T11:47:47.481Z,23.75
2023-10-09T11:49:27.211Z,23.23
2023-10-09T11:51:01.463Z,24.38
2023-10-09T11:52:13.510Z,26.13
2023-10-09T11:53:25.923Z,27.60
2023-10-09T11:54:37.007Z,27.47
2023-10-09T11:55:40.123Z,27.08
2023-10-09T11:56:44.144Z,27.27
2023-10-09T11:57:46.874Z,28.26
2023-10-09T11:58:53.394Z,29.25
2023-10-09T11:59:56.816Z,29.70
2023-10-09T12:01:17.719Z,30.12
2023-10-09T12:02:23.015Z,30.39
2023-10-09T12:03:31.393Z,30.58
2023-10-09T12:04:34.421Z,31.36
2023-10-09T12:05:37.240Z,31.88
2023-10-09T12:06:43.771Z,31.71
2023-10-09T12:07:47.593Z,33.41
2023-10-09T12:08:50.828Z,35.69
2023-10-09T12:09:57.965Z,37.42
2023-10-09T12:11:05.249Z,39.48
2023-10-09T12:12:12.431Z,39.42
2023-10-09T12:13:17.178Z,40.59
2023-10-09T12:14:25.181Z,41.26
2023-10-09T12:15:38.732Z,42.60
2023-10-09T12:16:51.280Z,42.29
2023-10-09T12:17:54.958Z,42.32
2023-10-09T12:18:59.127Z,42.02
2023-10-09T12:20:05.010Z,43.31
2023-10-09T12:21:08.646Z,42.79
2023-10-09T12:22:12.129Z,46.27
2023-10-09T12:23:16.187Z,46.69
2023-10-09T12:24:20.572Z,46.19
2023-10-09T12:25:23.558Z,46.73
2023-10-09T12:26:26.174Z,46.48
2023-10-09T12:27:30.412Z,45.18
2023-10-09T12:28:36.509Z,46.13
2023-10-09T12:29:48.917Z,52.63
2023-10-09T12:30:53.800Z,50.12
2023-10-09T12:32:00.620Z,51.26
2023-10-09T12:33:04.261Z,51.18
2023-10-09T12:34:07.138Z,49.93
2023-10-09T12:35:18.487Z,50.65
2023-10-09T12:36:21.732Z,51.50
2023-10-09T12:37:25.006Z,52.71
2023-10-09T12:38:35.634Z,51.63
2023-10-09T12:39:41.851Z,54.61
2023-10-09T12:40:52.099Z,52.64
2023-10-09T12:41:58.933Z,54.62
2023-10-09T12:43:02.098Z,55.13
2023-10-09T12:44:06.185Z,56.38
2023-10-09T12:45:11.314Z,57.30
2023-10-09T12:46:18.159Z,55.55
2023-10-09T12:47:21.189Z,54.64
2023-10-09T12:48:25.049Z,52.82
2023-10-09T12:49:27.955Z,54.85
2023-10-09T12:50:34.837Z,56.68
2023-10-09T12:51:38.300Z,56.14
2023-10-09T12:52:41.806Z,58.74
2023-10-09T12:53:47.041Z,56.35
2023-10-09T12:54:49.971Z,55.91
2023-10-09T12:55:57.868Z,55.83
2023-10-09T12:57:00.963Z,56.30
2023-10-09T12:58:09.873Z,55.59
2023-10-09T12:59:16.490Z,56.96
2023-10-09T13:00:26.992Z,55.74
2023-10-09T13:01:44.129Z,58.86
2023-10-09T13:02:47.724Z,58.17
2023-10-09T13:03:50.917Z,60.54
2023-10-09T13:04:54.346Z,55.93
2023-10-09T13:05:57.391Z,55.51
2023-10-09T13:07:04.821Z,56.17
2023-10-09T13:08:09.590Z,58.03
2023-10-09T13:09:17.163Z,56.61
2023-10-09T13:10:21.575Z,56.49
2023-10-09T13:11:26.991Z,55.93
2023-10-09T13:12:29.868Z,56.74
2023-10-09T13:13:42.807Z,57.86
2023-10-09T13:14:46.773Z,56.09
2023-10-09T13:15:49.538Z,56.01
2023-10-09T13:16:53.966Z,55.04
2023-10-09T13:17:57.144Z,55.55
2023-10-09T13:19:10.666Z,55.01
2023-10-09T13:20:17.868Z,56.68
2023-10-09T13:21:27.784Z,56.82
2023-10-09T13:22:31.820Z,58.20
2023-10-09T13:23:40.900Z,55.73
2023-10-09T13:24:43.829Z,54.61
2023-10-09T13:25:47.012Z,55.17
2023-10-09T13:26:52.795Z,56.71
2023-10-09T13:27:55.877Z,56.95
2023-10-09T13:28:59.592Z,61.61
2023-10-09T13:30:07.034Z,63.61
2023-10-09T13:31:12.525Z,63.48
2023-10-09T13:32:16.480Z,63.32
2023-10-09T13:33:23.344Z,67.64
2023-10-09T13:34:29.780Z,71.47
2023-10-09T13:35:39.318Z,69.72
2023-10-09T13:36:51.406Z,69.48
2023-10-09T13:37:57.554Z,71.12
2023-10-09T13:39:20.744Z,72.60
2023-10-09T13:40:30.505Z,71.92
2023-10-09T13:41:33.349Z,74.37
2023-10-09T13:42:36.926Z,74.48
2023-10-09T13:43:43.793Z,74.95
2023-10-09T13:44:49.981Z,75.35
2023-10-09T13:45:52.740Z,76.45
2023-10-09T13:46:57.695Z,77.19
2023-10-09T13:48:04.202Z,76.85
2023-10-09T13:49:10.398Z,76.84
2023-10-09T13:50:14.993Z,78.94
2023-10-09T13:51:20.642Z,76.92
2023-10-09T13:52:23.825Z,76.55
2023-10-09T13:53:28.459Z,79.45
2023-10-09T13:54:35.443Z,78.40
2023-10-09T13:55:45.016Z,79.69
2023-10-09T13:56:54.297Z,79.37
2023-10-09T13:57:58.894Z,78.81
2023-10-09T13:59:02.514Z,79.18
2023-10-09T14:00:12.219Z,77.50
2023-10-09T14:01:33.984Z,79.29
2023-10-09T14:02:37.014Z,81.26
2023-10-09T14:03:40.366Z,80.66
2023-10-09T14:04:43.950Z,81.69
2023-10-09T14:05:58.463Z,83.17
2023-10-09T14:07:03.097Z,82.25
2023-10-09T14:08:10.265Z,79.55
2023-10-09T14:09:32.678Z,80.84
2023-10-09T14:10:40.171Z,74.93
2023-10-09T14:11:45.803Z,75.77
2023-10-09T14:12:55.805Z,77.68
2023-10-09T14:14:11.341Z,77.66
2023-10-09T14:15:18.897Z,79.73
2023-10-09T14:16:34.437Z,79.96
2023-10-09T14:17:37.347Z,80.47
2023-10-09T14:18:40.365Z,82.18
2023-10-09T14:19:51.165Z,82.21
2023-10-09T14:20:57.776Z,81.72
2023-10-09T14:22:00.593Z,83.43
2023-10-09T14:23:11.735Z,82.99
2023-10-09T14:24:20.175Z,84.42
2023-10-09T14:25:24.623Z,79.77
2023-10-09T14:26:29.037Z,79.58
2023-10-09T14:27:31.944Z,82.06
2023-10-09T14:28:34.700Z,83.77
2023-10-09T14:29:39.166Z,84.40
2023-10-09T14:30:45.406Z,86.61
2023-10-09T14:32:01.574Z,87.47
2023-10-09T14:33:07.260Z,86.95
2023-10-09T14:34:10.594Z,87.88
2023-10-09T14:35:16.325Z,86.74
2023-10-09T14:36:21.706Z,87.05
2023-10-09T14:37:25.389Z,86.11
2023-10-09T14:38:28.795Z,85.32
2023-10-09T14:39:35.007Z,86.59
2023-10-09T14:40:42.858Z,86.57
2023-10-09T14:41:46.653Z,86.55
2023-10-09T14:42:56.712Z,86.51
2023-10-09T14:44:02.214Z,86.16
2023-10-09T14:45:09.636Z,85.20
2023-10-09T14:46:16.120Z,85.73
2023-10-09T14:47:19.851Z,84.15
2023-10-09T14:48:30.171Z,87.54
2023-10-09T14:49:38.432Z,87.12
2023-10-09T14:50:48.382Z,87.30
2023-10-09T14:51:51.891Z,87.95
2023-10-09T14:52:54.994Z,89.25
2023-10-09T14:54:04.188Z,88.01
2023-10-09T14:55:08.003Z,88.15
2023-10-09T14:56:11.132Z,86.80
2023-10-09T14:57:15.165Z,87.58
2023-10-09T14:58:19.081Z,87.27
2023-10-09T14:59:23.830Z,88.93
2023-10-09T15:00:27.777Z,89.88
2023-10-09T15:01:32.427Z,89.99
2023-10-09T15:02:35.392Z,90.68
2023-10-09T15:03:41.397Z,91.74
2023-10-09T15:04:44.274Z,91.41